sim
Sign-in with your pilot id or email,
or register
Callsign
Passwort

Schedule Details

Flight Number: OEO3287
Departure: Tenerife North Airport (GCXO) at 17:00
Arrival: Munich Airport (EDDM) at 21:25

Weather Information
Getting current METAR information for GCXO 230900Z 30015KT 9999 FEW072 23/08 Q1018 NOSIG
Getting current METAR information for EDDM 230850Z 26009KT 9999 VCSH BKN012 FEW015CB BKN020 16/15 Q1010 TEMPO 4000 SHRA

Schedule Frequency

Route Map